sensor_id;sensor_type;location;lat;lon;timestamp;temperature;humidity
23499;DHT22;11926;48.120;11.562;2023-03-03T00:02:10;1.70;93.40
23499;DHT22;11926;48.120;11.562;2023-03-03T00:04:58;1.60;93.40
23499;DHT22;11926;48.120;11.562;2023-03-03T00:07:45;1.70;93.40
23499;DHT22;11926;48.120;11.562;2023-03-03T00:10:33;1.60;93.40
23499;DHT22;11926;48.120;11.562;2023-03-03T00:13:22;1.60;93.40
23499;DHT22;11926;48.120;11.562;2023-03-03T00:16:15;1.50;93.50
23499;DHT22;11926;48.120;11.562;2023-03-03T00:19:06;1.50;93.50
23499;DHT22;11926;48.120;11.562;2023-03-03T00:21:59;1.40;93.30
23499;DHT22;11926;48.120;11.562;2023-03-03T00:24:47;1.40;93.50
23499;DHT22;11926;48.120;11.562;2023-03-03T00:27:35;1.40;93.50
23499;DHT22;11926;48.120;11.562;2023-03-03T00:30:26;1.40;93.50
23499;DHT22;11926;48.120;11.562;2023-03-03T00:33:21;1.30;93.50
23499;DHT22;11926;48.120;11.562;2023-03-03T00:36:28;1.30;93.60
23499;DHT22;11926;48.120;11.562;2023-03-03T00:39:22;1.30;93.60
23499;DHT22;11926;48.120;11.562;2023-03-03T00:42:13;1.20;93.60
23499;DHT22;11926;48.120;11.562;2023-03-03T00:45:01;1.20;93.70
23499;DHT22;11926;48.120;11.562;2023-03-03T00:47:49;1.20;93.70
23499;DHT22;11926;48.120;11.562;2023-03-03T00:50:40;1.10;93.80
23499;DHT22;11926;48.120;11.562;2023-03-03T00:53:30;1.10;93.80
23499;DHT22;11926;48.120;11.562;2023-03-03T00:56:18;1.00;93.60
23499;DHT22;11926;48.120;11.562;2023-03-03T00:59:06;1.00;93.70
23499;DHT22;11926;48.120;11.562;2023-03-03T01:01:53;1.00;93.80
23499;DHT22;11926;48.120;11.562;2023-03-03T01:04:43;1.00;93.80
23499;DHT22;11926;48.120;11.562;2023-03-03T01:07:31;1.00;93.80
23499;DHT22;11926;48.120;11.562;2023-03-03T01:10:20;0.90;93.80
23499;DHT22;11926;48.120;11.562;2023-03-03T01:13:08;0.90;93.90
23499;DHT22;11926;48.120;11.562;2023-03-03T01:15:57;0.90;93.90
23499;DHT22;11926;48.120;11.562;2023-03-03T01:18:45;0.90;93.90
23499;DHT22;11926;48.120;11.562;2023-03-03T01:21:33;0.90;94.00
23499;DHT22;11926;48.120;11.562;2023-03-03T01:24:21;0.90;94.00
23499;DHT22;11926;48.120;11.562;2023-03-03T01:27:10;0.90;94.00
23499;DHT22;11926;48.120;11.562;2023-03-03T01:29:58;0.90;94.10
23499;DHT22;11926;48.120;11.562;2023-03-03T01:32:46;0.90;94.10
23499;DHT22;11926;48.120;11.562;2023-03-03T01:35:33;0.90;94.20
23499;DHT22;11926;48.120;11.562;2023-03-03T01:38:22;0.90;94.20
23499;DHT22;11926;48.120;11.562;2023-03-03T01:41:10;0.90;94.20
23499;DHT22;11926;48.120;11.562;2023-03-03T01:43:59;0.90;94.10
23499;DHT22;11926;48.120;11.562;2023-03-03T01:46:53;0.80;94.20
23499;DHT22;11926;48.120;11.562;2023-03-03T01:49:45;0.80;94.20
23499;DHT22;11926;48.120;11.562;2023-03-03T01:52:37;0.80;94.30
23499;DHT22;11926;48.120;11.562;2023-03-03T01:55:29;0.80;94.30
23499;DHT22;11926;48.120;11.562;2023-03-03T01:58:22;0.80;94.40
23499;DHT22;11926;48.120;11.562;2023-03-03T02:01:19;0.80;94.30
23499;DHT22;11926;48.120;11.562;2023-03-03T02:04:08;0.80;94.30
23499;DHT22;11926;48.120;11.562;2023-03-03T02:06:59;0.70;94.30
23499;DHT22;11926;48.120;11.562;2023-03-03T02:09:54;0.80;94.40
23499;DHT22;11926;48.120;11.562;2023-03-03T02:12:48;0.70;94.40
23499;DHT22;11926;48.120;11.562;2023-03-03T02:15:36;0.70;94.50
23499;DHT22;11926;48.120;11.562;2023-03-03T02:18:26;0.70;94.50
23499;DHT22;11926;48.120;11.562;2023-03-03T02:21:18;0.70;94.50
23499;DHT22;11926;48.120;11.562;2023-03-03T02:24:12;0.70;94.60
23499;DHT22;11926;48.120;11.562;2023-03-03T02:27:05;0.70;94.70
23499;DHT22;11926;48.120;11.562;2023-03-03T02:29:53;0.70;94.70
23499;DHT22;11926;48.120;11.562;2023-03-03T02:32:41;0.70;94.60
23499;DHT22;11926;48.120;11.562;2023-03-03T02:35:31;0.70;94.70
23499;DHT22;11926;48.120;11.562;2023-03-03T02:38:23;0.70;94.70
23499;DHT22;11926;48.120;11.562;2023-03-03T02:41:18;0.70;94.70
23499;DHT22;11926;48.120;11.562;2023-03-03T02:44:11;0.70;94.70
23499;DHT22;11926;48.120;11.562;2023-03-03T02:47:01;0.70;94.80
23499;DHT22;11926;48.120;11.562;2023-03-03T02:49:48;0.70;94.70
23499;DHT22;11926;48.120;11.562;2023-03-03T02:52:36;0.70;94.70
23499;DHT22;11926;48.120;11.562;2023-03-03T02:55:24;0.80;94.80
23499;DHT22;11926;48.120;11.562;2023-03-03T02:58:11;0.80;94.80
23499;DHT22;11926;48.120;11.562;2023-03-03T03:01:01;0.80;94.90
23499;DHT22;11926;48.120;11.562;2023-03-03T03:03:48;0.80;95.00
23499;DHT22;11926;48.120;11.562;2023-03-03T03:06:39;0.90;95.00
23499;DHT22;11926;48.120;11.562;2023-03-03T03:09:27;0.90;95.10
23499;DHT22;11926;48.120;11.562;2023-03-03T03:12:15;1.00;95.10
23499;DHT22;11926;48.120;11.562;2023-03-03T03:15:06;1.10;95.20
23499;DHT22;11926;48.120;11.562;2023-03-03T03:17:57;1.20;95.20
23499;DHT22;11926;48.120;11.562;2023-03-03T03:20:46;1.30;95.30
23499;DHT22;11926;48.120;11.562;2023-03-03T03:23:34;1.30;95.30
23499;DHT22;11926;48.120;11.562;2023-03-03T03:26:22;1.40;95.20
23499;DHT22;11926;48.120;11.562;2023-03-03T03:29:10;1.50;95.20
23499;DHT22;11926;48.120;11.562;2023-03-03T03:31:57;1.60;95.30
23499;DHT22;11926;48.120;11.562;2023-03-03T03:34:49;1.70;95.30
23499;DHT22;11926;48.120;11.562;2023-03-03T03:37:38;1.80;95.30
23499;DHT22;11926;48.120;11.562;2023-03-03T03:40:26;1.80;95.20
23499;DHT22;11926;48.120;11.562;2023-03-03T03:43:13;1.90;95.20
23499;DHT22;11926;48.120;11.562;2023-03-03T03:46:02;1.90;95.20
23499;DHT22;11926;48.120;11.562;2023-03-03T03:48:50;2.00;95.20
23499;DHT22;11926;48.120;11.562;2023-03-03T03:51:41;2.10;95.30
23499;DHT22;11926;48.120;11.562;2023-03-03T03:54:33;2.10;95.30
23499;DHT22;11926;48.120;11.562;2023-03-03T03:57:21;2.10;95.10
23499;DHT22;11926;48.120;11.562;2023-03-03T04:00:12;2.10;95.20
23499;DHT22;11926;48.120;11.562;2023-03-03T04:03:07;2.20;95.30
23499;DHT22;11926;48.120;11.562;2023-03-03T04:05:56;2.20;95.30
23499;DHT22;11926;48.120;11.562;2023-03-03T04:08:45;2.20;95.30
23499;DHT22;11926;48.120;11.562;2023-03-03T04:11:34;2.30;95.30
23499;DHT22;11926;48.120;11.562;2023-03-03T04:14:24;2.30;95.30
23499;DHT22;11926;48.120;11.562;2023-03-03T04:17:15;2.30;95.30
23499;DHT22;11926;48.120;11.562;2023-03-03T04:20:05;2.40;95.30
23499;DHT22;11926;48.120;11.562;2023-03-03T04:22:53;2.40;95.70
23499;DHT22;11926;48.120;11.562;2023-03-03T04:25:47;2.40;95.30
23499;DHT22;11926;48.120;11.562;2023-03-03T04:28:36;2.50;95.30
23499;DHT22;11926;48.120;11.562;2023-03-03T04:31:24;2.50;95.30
23499;DHT22;11926;48.120;11.562;2023-03-03T04:34:12;2.50;95.30
23499;DHT22;11926;48.120;11.562;2023-03-03T04:37:01;2.60;95.30
23499;DHT22;11926;48.120;11.562;2023-03-03T04:39:49;2.60;95.30
23499;DHT22;11926;48.120;11.562;2023-03-03T04:42:38;2.60;95.30
23499;DHT22;11926;48.120;11.562;2023-03-03T04:45:28;2.60;95.30
23499;DHT22;11926;48.120;11.562;2023-03-03T04:48:15;2.70;95.30
23499;DHT22;11926;48.120;11.562;2023-03-03T04:51:04;2.70;95.30
23499;DHT22;11926;48.120;11.562;2023-03-03T04:53:53;2.70;95.40
23499;DHT22;11926;48.120;11.562;2023-03-03T04:56:41;2.70;95.30
23499;DHT22;11926;48.120;11.562;2023-03-03T04:59:30;2.80;95.40
23499;DHT22;11926;48.120;11.562;2023-03-03T05:02:18;2.80;95.40
23499;DHT22;11926;48.120;11.562;2023-03-03T05:05:07;2.80;95.40
23499;DHT22;11926;48.120;11.562;2023-03-03T05:07:55;2.80;95.40
23499;DHT22;11926;48.120;11.562;2023-03-03T05:10:43;2.80;95.30
23499;DHT22;11926;48.120;11.562;2023-03-03T05:13:30;2.90;95.40
23499;DHT22;11926;48.120;11.562;2023-03-03T05:16:19;2.90;95.40
23499;DHT22;11926;48.120;11.562;2023-03-03T05:19:07;2.90;95.40
23499;DHT22;11926;48.120;11.562;2023-03-03T05:21:55;2.90;95.40
23499;DHT22;11926;48.120;11.562;2023-03-03T05:24:44;2.90;95.40
23499;DHT22;11926;48.120;11.562;2023-03-03T05:27:34;2.90;95.40
23499;DHT22;11926;48.120;11.562;2023-03-03T05:30:22;3.00;95.40
23499;DHT22;11926;48.120;11.562;2023-03-03T05:33:13;3.00;95.40
23499;DHT22;11926;48.120;11.562;2023-03-03T05:36:01;3.00;95.40
23499;DHT22;11926;48.120;11.562;2023-03-03T05:38:49;3.00;95.40
23499;DHT22;11926;48.120;11.562;2023-03-03T05:41:37;3.00;95.30
23499;DHT22;11926;48.120;11.562;2023-03-03T05:44:26;3.10;95.30
23499;DHT22;11926;48.120;11.562;2023-03-03T05:47:13;3.10;95.40
23499;DHT22;11926;48.120;11.562;2023-03-03T05:50:03;3.10;95.40
23499;DHT22;11926;48.120;11.562;2023-03-03T05:52:51;3.10;95.30
23499;DHT22;11926;48.120;11.562;2023-03-03T05:55:39;3.10;95.30
23499;DHT22;11926;48.120;11.562;2023-03-03T05:58:27;3.10;95.70
23499;DHT22;11926;48.120;11.562;2023-03-03T06:01:15;3.10;95.30
23499;DHT22;11926;48.120;11.562;2023-03-03T06:04:03;3.10;95.30
23499;DHT22;11926;48.120;11.562;2023-03-03T06:06:52;3.20;95.30
23499;DHT22;11926;48.120;11.562;2023-03-03T06:09:40;3.20;95.30
23499;DHT22;11926;48.120;11.562;2023-03-03T06:12:27;3.20;95.30
23499;DHT22;11926;48.120;11.562;2023-03-03T06:15:15;3.20;95.30
23499;DHT22;11926;48.120;11.562;2023-03-03T06:18:03;3.20;95.70
23499;DHT22;11926;48.120;11.562;2023-03-03T06:20:51;3.20;95.30
23499;DHT22;11926;48.120;11.562;2023-03-03T06:23:40;3.20;95.30
23499;DHT22;11926;48.120;11.562;2023-03-03T06:26:28;3.30;95.30
23499;DHT22;11926;48.120;11.562;2023-03-03T06:29:17;3.30;95.30
23499;DHT22;11926;48.120;11.562;2023-03-03T06:32:04;3.30;95.30
23499;DHT22;11926;48.120;11.562;2023-03-03T06:34:52;3.40;95.30
23499;DHT22;11926;48.120;11.562;2023-03-03T06:37:40;3.30;95.20
23499;DHT22;11926;48.120;11.562;2023-03-03T06:40:29;3.40;95.20
23499;DHT22;11926;48.120;11.562;2023-03-03T06:43:16;3.40;95.20
23499;DHT22;11926;48.120;11.562;2023-03-03T06:46:04;3.40;95.20
23499;DHT22;11926;48.120;11.562;2023-03-03T06:48:53;3.40;95.20
23499;DHT22;11926;48.120;11.562;2023-03-03T06:51:40;3.50;95.20
23499;DHT22;11926;48.120;11.562;2023-03-03T06:54:30;3.50;95.10
23499;DHT22;11926;48.120;11.562;2023-03-03T06:57:27;3.50;95.10
23499;DHT22;11926;48.120;11.562;2023-03-03T07:00:20;3.50;95.10
23499;DHT22;11926;48.120;11.562;2023-03-03T07:03:18;3.50;95.10
23499;DHT22;11926;48.120;11.562;2023-03-03T07:06:17;3.50;95.10
23499;DHT22;11926;48.120;11.562;2023-03-03T07:09:14;3.60;95.10
23499;DHT22;11926;48.120;11.562;2023-03-03T07:12:10;3.60;95.00
23499;DHT22;11926;48.120;11.562;2023-03-03T07:15:12;3.60;95.00
23499;DHT22;11926;48.120;11.562;2023-03-03T07:18:00;3.70;95.00
23499;DHT22;11926;48.120;11.562;2023-03-03T07:20:50;3.70;94.90
23499;DHT22;11926;48.120;11.562;2023-03-03T07:23:38;3.70;94.90
23499;DHT22;11926;48.120;11.562;2023-03-03T07:26:29;3.70;94.80
23499;DHT22;11926;48.120;11.562;2023-03-03T07:29:23;3.80;94.80
23499;DHT22;11926;48.120;11.562;2023-03-03T07:32:21;3.80;94.80
23499;DHT22;11926;48.120;11.562;2023-03-03T07:35:34;3.70;94.70
23499;DHT22;11926;48.120;11.562;2023-03-03T07:38:28;3.80;94.80
23499;DHT22;11926;48.120;11.562;2023-03-03T07:41:19;3.80;94.70
23499;DHT22;11926;48.120;11.562;2023-03-03T07:44:16;3.80;94.70
23499;DHT22;11926;48.120;11.562;2023-03-03T07:47:18;3.90;94.70
23499;DHT22;11926;48.120;11.562;2023-03-03T07:50:14;3.90;94.60
23499;DHT22;11926;48.120;11.562;2023-03-03T07:53:14;3.90;94.60
23499;DHT22;11926;48.120;11.562;2023-03-03T07:56:18;4.00;94.60
23499;DHT22;11926;48.120;11.562;2023-03-03T07:59:20;4.00;94.50
23499;DHT22;11926;48.120;11.562;2023-03-03T08:05:33;4.10;94.40
23499;DHT22;11926;48.120;11.562;2023-03-03T08:08:29;4.10;94.40
23499;DHT22;11926;48.120;11.562;2023-03-03T08:11:22;4.20;94.40
23499;DHT22;11926;48.120;11.562;2023-03-03T08:14:17;4.20;94.30
23499;DHT22;11926;48.120;11.562;2023-03-03T08:17:16;4.30;94.30
23499;DHT22;11926;48.120;11.562;2023-03-03T08:23:35;4.50;94.00
23499;DHT22;11926;48.120;11.562;2023-03-03T08:26:25;4.50;93.90
23499;DHT22;11926;48.120;11.562;2023-03-03T08:29:13;4.60;93.90
23499;DHT22;11926;48.120;11.562;2023-03-03T08:32:01;4.70;93.80
23499;DHT22;11926;48.120;11.562;2023-03-03T08:34:53;4.80;93.70
23499;DHT22;11926;48.120;11.562;2023-03-03T08:37:43;4.90;93.60
23499;DHT22;11926;48.120;11.562;2023-03-03T08:40:33;5.10;93.60
23499;DHT22;11926;48.120;11.562;2023-03-03T08:43:21;5.20;93.40
23499;DHT22;11926;48.120;11.562;2023-03-03T08:46:09;5.40;93.30
23499;DHT22;11926;48.120;11.562;2023-03-03T08:48:57;5.50;93.60
23499;DHT22;11926;48.120;11.562;2023-03-03T08:51:45;5.70;93.20
23499;DHT22;11926;48.120;11.562;2023-03-03T08:54:33;5.80;93.00
23499;DHT22;11926;48.120;11.562;2023-03-03T08:57:22;5.90;92.70
23499;DHT22;11926;48.120;11.562;2023-03-03T09:00:13;6.00;92.60
23499;DHT22;11926;48.120;11.562;2023-03-03T09:03:01;6.10;92.40
23499;DHT22;11926;48.120;11.562;2023-03-03T09:05:49;6.20;92.30
23499;DHT22;11926;48.120;11.562;2023-03-03T09:08:37;6.20;92.10
23499;DHT22;11926;48.120;11.562;2023-03-03T09:11:26;6.30;92.00
23499;DHT22;11926;48.120;11.562;2023-03-03T09:14:17;6.30;91.90
23499;DHT22;11926;48.120;11.562;2023-03-03T09:17:22;6.40;91.80
23499;DHT22;11926;48.120;11.562;2023-03-03T09:20:22;6.50;91.50
23499;DHT22;11926;48.120;11.562;2023-03-03T09:23:30;6.60;91.60
23499;DHT22;11926;48.120;11.562;2023-03-03T09:26:27;6.70;91.50
23499;DHT22;11926;48.120;11.562;2023-03-03T09:29:23;6.80;91.30
23499;DHT22;11926;48.120;11.562;2023-03-03T09:32:26;6.90;91.00
23499;DHT22;11926;48.120;11.562;2023-03-03T09:35:33;7.00;90.90
23499;DHT22;11926;48.120;11.562;2023-03-03T09:38:28;7.10;90.90
23499;DHT22;11926;48.120;11.562;2023-03-03T09:41:39;7.30;90.70
23499;DHT22;11926;48.120;11.562;2023-03-03T09:44:55;7.50;90.40
23499;DHT22;11926;48.120;11.562;2023-03-03T09:47:59;7.50;90.20
23499;DHT22;11926;48.120;11.562;2023-03-03T09:50:59;7.50;90.00
23499;DHT22;11926;48.120;11.562;2023-03-03T09:53:58;7.70;89.90
23499;DHT22;11926;48.120;11.562;2023-03-03T09:56:52;7.80;89.50
23499;DHT22;11926;48.120;11.562;2023-03-03T10:05:52;7.90;89.20
23499;DHT22;11926;48.120;11.562;2023-03-03T10:08:53;7.90;88.30
23499;DHT22;11926;48.120;11.562;2023-03-03T10:11:47;7.90;88.00
23499;DHT22;11926;48.120;11.562;2023-03-03T10:14:50;7.90;87.80
23499;DHT22;11926;48.120;11.562;2023-03-03T10:17:48;8.00;87.90
23499;DHT22;11926;48.120;11.562;2023-03-03T10:20:46;8.10;87.50
23499;DHT22;11926;48.120;11.562;2023-03-03T10:23:50;8.10;87.10
23499;DHT22;11926;48.120;11.562;2023-03-03T10:26:54;8.10;87.10
23499;DHT22;11926;48.120;11.562;2023-03-03T10:30:06;8.20;86.90
23499;DHT22;11926;48.120;11.562;2023-03-03T10:33:13;8.30;86.40
23499;DHT22;11926;48.120;11.562;2023-03-03T10:39:10;8.40;85.60
23499;DHT22;11926;48.120;11.562;2023-03-03T10:42:09;8.40;85.20
23499;DHT22;11926;48.120;11.562;2023-03-03T10:45:20;8.50;85.10
23499;DHT22;11926;48.120;11.562;2023-03-03T10:48:24;8.50;84.60
23499;DHT22;11926;48.120;11.562;2023-03-03T10:51:22;8.60;84.50
23499;DHT22;11926;48.120;11.562;2023-03-03T10:54:29;8.60;84.30
23499;DHT22;11926;48.120;11.562;2023-03-03T10:57:28;8.70;83.80
23499;DHT22;11926;48.120;11.562;2023-03-03T11:00:25;8.70;83.60
23499;DHT22;11926;48.120;11.562;2023-03-03T11:03:34;8.80;83.50
23499;DHT22;11926;48.120;11.562;2023-03-03T11:06:36;8.90;83.20
23499;DHT22;11926;48.120;11.562;2023-03-03T11:09:37;8.90;83.00
23499;DHT22;11926;48.120;11.562;2023-03-03T11:12:31;8.90;82.40
23499;DHT22;11926;48.120;11.562;2023-03-03T11:15:34;8.80;82.80
23499;DHT22;11926;48.120;11.562;2023-03-03T11:18:30;8.80;82.60
23499;DHT22;11926;48.120;11.562;2023-03-03T11:21:24;8.90;82.40
23499;DHT22;11926;48.120;11.562;2023-03-03T11:24:15;9.00;82.20
23499;DHT22;11926;48.120;11.562;2023-03-03T11:27:18;9.00;82.70
23499;DHT22;11926;48.120;11.562;2023-03-03T11:30:23;9.10;82.00
23499;DHT22;11926;48.120;11.562;2023-03-03T11:33:20;9.10;81.50
23499;DHT22;11926;48.120;11.562;2023-03-03T11:36:22;9.20;81.50
23499;DHT22;11926;48.120;11.562;2023-03-03T11:39:15;9.30;81.20
23499;DHT22;11926;48.120;11.562;2023-03-03T11:42:12;9.30;80.60
23499;DHT22;11926;48.120;11.562;2023-03-03T11:45:11;9.40;80.60
23499;DHT22;11926;48.120;11.562;2023-03-03T11:48:07;9.40;80.40
23499;DHT22;11926;48.120;11.562;2023-03-03T11:51:19;9.60;80.10
23499;DHT22;11926;48.120;11.562;2023-03-03T11:57:00;9.80;79.60
23499;DHT22;11926;48.120;11.562;2023-03-03T12:00:04;9.90;79.70
23499;DHT22;11926;48.120;11.562;2023-03-03T12:03:08;10.10;79.60
23499;DHT22;11926;48.120;11.562;2023-03-03T12:06:09;10.20;78.80
23499;DHT22;11926;48.120;11.562;2023-03-03T12:09:12;10.30;78.30
23499;DHT22;11926;48.120;11.562;2023-03-03T12:12:08;10.50;78.40
23499;DHT22;11926;48.120;11.562;2023-03-03T12:15:09;10.40;77.60
23499;DHT22;11926;48.120;11.562;2023-03-03T12:21:19;10.60;77.10
23499;DHT22;11926;48.120;11.562;2023-03-03T12:24:23;10.60;76.30
23499;DHT22;11926;48.120;11.562;2023-03-03T12:27:21;10.60;76.30
23499;DHT22;11926;48.120;11.562;2023-03-03T12:30:25;10.60;76.70
23499;DHT22;11926;48.120;11.562;2023-03-03T12:33:21;10.70;76.20
23499;DHT22;11926;48.120;11.562;2023-03-03T12:36:23;10.80;76.30
23499;DHT22;11926;48.120;11.562;2023-03-03T12:39:24;10.80;75.70
23499;DHT22;11926;48.120;11.562;2023-03-03T12:42:29;10.90;75.70
23499;DHT22;11926;48.120;11.562;2023-03-03T12:45:31;10.80;75.60
23499;DHT22;11926;48.120;11.562;2023-03-03T12:48:22;10.80;75.20
23499;DHT22;11926;48.120;11.562;2023-03-03T12:51:21;10.70;75.00
23499;DHT22;11926;48.120;11.562;2023-03-03T12:54:27;10.70;74.80
23499;DHT22;11926;48.120;11.562;2023-03-03T12:57:29;10.60;74.50
23499;DHT22;11926;48.120;11.562;2023-03-03T13:00:26;10.60;74.80
23499;DHT22;11926;48.120;11.562;2023-03-03T13:03:26;10.60;74.90
23499;DHT22;11926;48.120;11.562;2023-03-03T13:06:25;10.60;74.80
23499;DHT22;11926;48.120;11.562;2023-03-03T13:09:26;10.70;74.50
23499;DHT22;11926;48.120;11.562;2023-03-03T13:12:27;10.70;74.20
23499;DHT22;11926;48.120;11.562;2023-03-03T13:15:20;10.70;74.30
23499;DHT22;11926;48.120;11.562;2023-03-03T13:18:28;10.70;73.70
23499;DHT22;11926;48.120;11.562;2023-03-03T13:21:20;10.70;74.00
23499;DHT22;11926;48.120;11.562;2023-03-03T13:24:16;10.70;74.20
23499;DHT22;11926;48.120;11.562;2023-03-03T13:27:09;10.70;73.90
23499;DHT22;11926;48.120;11.562;2023-03-03T13:30:00;10.70;73.70
23499;DHT22;11926;48.120;11.562;2023-03-03T13:32:53;10.70;74.00
23499;DHT22;11926;48.120;11.562;2023-03-03T13:35:45;10.70;74.00
23499;DHT22;11926;48.120;11.562;2023-03-03T13:38:38;10.70;73.70
23499;DHT22;11926;48.120;11.562;2023-03-03T13:41:30;10.60;73.50
23499;DHT22;11926;48.120;11.562;2023-03-03T13:44:25;10.60;73.50
23499;DHT22;11926;48.120;11.562;2023-03-03T13:47:20;10.50;73.50
23499;DHT22;11926;48.120;11.562;2023-03-03T13:50:17;10.40;73.60
23499;DHT22;11926;48.120;11.562;2023-03-03T13:53:23;10.20;73.50
23499;DHT22;11926;48.120;11.562;2023-03-03T13:56:24;10.10;74.00
23499;DHT22;11926;48.120;11.562;2023-03-03T13:59:20;10.10;74.90
23499;DHT22;11926;48.120;11.562;2023-03-03T14:02:28;10.10;74.90
23499;DHT22;11926;48.120;11.562;2023-03-03T14:05:25;10.30;75.40
23499;DHT22;11926;48.120;11.562;2023-03-03T14:08:25;10.40;75.00
23499;DHT22;11926;48.120;11.562;2023-03-03T14:11:20;10.50;75.00
23499;DHT22;11926;48.120;11.562;2023-03-03T14:14:17;10.60;74.50
23499;DHT22;11926;48.120;11.562;2023-03-03T14:17:16;10.70;74.70
23499;DHT22;11926;48.120;11.562;2023-03-03T14:20:17;10.90;73.00
23499;DHT22;11926;48.120;11.562;2023-03-03T14:23:12;10.90;73.70
23499;DHT22;11926;48.120;11.562;2023-03-03T14:26:06;11.00;73.80
23499;DHT22;11926;48.120;11.562;2023-03-03T14:29:21;11.20;73.20
23499;DHT22;11926;48.120;11.562;2023-03-03T14:32:25;11.40;72.90
23499;DHT22;11926;48.120;11.562;2023-03-03T14:35:32;11.70;72.60
23499;DHT22;11926;48.120;11.562;2023-03-03T14:38:23;12.10;72.00
23499;DHT22;11926;48.120;11.562;2023-03-03T14:41:16;12.60;70.80
23499;DHT22;11926;48.120;11.562;2023-03-03T14:44:23;13.10;69.30
23499;DHT22;11926;48.120;11.562;2023-03-03T14:47:20;13.70;68.10
23499;DHT22;11926;48.120;11.562;2023-03-03T14:50:30;14.10;66.60
23499;DHT22;11926;48.120;11.562;2023-03-03T14:53:29;14.50;65.50
23499;DHT22;11926;48.120;11.562;2023-03-03T14:56:22;14.60;64.00
23499;DHT22;11926;48.120;11.562;2023-03-03T14:59:16;14.60;63.50
23499;DHT22;11926;48.120;11.562;2023-03-03T15:02:26;14.60;62.90
23499;DHT22;11926;48.120;11.562;2023-03-03T15:08:12;14.40;62.80
23499;DHT22;11926;48.120;11.562;2023-03-03T15:11:18;14.50;62.70
23499;DHT22;11926;48.120;11.562;2023-03-03T15:16:57;14.90;60.70
23499;DHT22;11926;48.120;11.562;2023-03-03T15:23:21;15.20;59.60
23499;DHT22;11926;48.120;11.562;2023-03-03T15:26:18;15.20;59.60
23499;DHT22;11926;48.120;11.562;2023-03-03T15:29:11;15.00;59.10
23499;DHT22;11926;48.120;11.562;2023-03-03T15:32:06;14.90;59.10
23499;DHT22;11926;48.120;11.562;2023-03-03T15:35:09;14.70;59.30
23499;DHT22;11926;48.120;11.562;2023-03-03T15:38:06;14.40;59.80
23499;DHT22;11926;48.120;11.562;2023-03-03T15:41:11;14.10;60.10
23499;DHT22;11926;48.120;11.562;2023-03-03T15:44:12;13.90;60.50
23499;DHT22;11926;48.120;11.562;2023-03-03T15:47:10;13.60;61.20
23499;DHT22;11926;48.120;11.562;2023-03-03T15:50:15;13.40;61.20
23499;DHT22;11926;48.120;11.562;2023-03-03T15:53:16;13.10;61.30
23499;DHT22;11926;48.120;11.562;2023-03-03T15:56:23;12.90;61.90
23499;DHT22;11926;48.120;11.562;2023-03-03T16:05:06;12.10;63.40
23499;DHT22;11926;48.120;11.562;2023-03-03T16:08:04;12.00;63.60
23499;DHT22;11926;48.120;11.562;2023-03-03T16:11:06;11.80;64.80
23499;DHT22;11926;48.120;11.562;2023-03-03T16:14:06;11.70;64.60
23499;DHT22;11926;48.120;11.562;2023-03-03T16:17:05;11.60;64.80
23499;DHT22;11926;48.120;11.562;2023-03-03T16:20:08;11.40;64.90
23499;DHT22;11926;48.120;11.562;2023-03-03T16:23:15;11.20;65.40
23499;DHT22;11926;48.120;11.562;2023-03-03T16:26:12;11.10;65.90
23499;DHT22;11926;48.120;11.562;2023-03-03T16:29:21;11.00;66.40
23499;DHT22;11926;48.120;11.562;2023-03-03T16:32:18;10.90;66.80
23499;DHT22;11926;48.120;11.562;2023-03-03T16:35:22;10.70;67.00
23499;DHT22;11926;48.120;11.562;2023-03-03T16:38:13;10.60;67.60
23499;DHT22;11926;48.120;11.562;2023-03-03T16:41:06;10.50;68.00
23499;DHT22;11926;48.120;11.562;2023-03-03T16:44:03;10.40;68.30
23499;DHT22;11926;48.120;11.562;2023-03-03T16:47:01;10.30;68.70
23499;DHT22;11926;48.120;11.562;2023-03-03T16:49:58;10.20;69.00
23499;DHT22;11926;48.120;11.562;2023-03-03T16:52:54;10.10;69.40
23499;DHT22;11926;48.120;11.562;2023-03-03T16:55:51;10.00;70.00
23499;DHT22;11926;48.120;11.562;2023-03-03T16:58:49;9.80;70.80
23499;DHT22;11926;48.120;11.562;2023-03-03T17:01:48;9.80;70.90
23499;DHT22;11926;48.120;11.562;2023-03-03T17:04:42;9.70;71.40
23499;DHT22;11926;48.120;11.562;2023-03-03T17:07:38;9.50;71.70
23499;DHT22;11926;48.120;11.562;2023-03-03T17:10:34;9.40;72.00
23499;DHT22;11926;48.120;11.562;2023-03-03T17:13:36;9.30;72.50
23499;DHT22;11926;48.120;11.562;2023-03-03T17:16:34;9.20;72.80
23499;DHT22;11926;48.120;11.562;2023-03-03T17:19:51;9.10;73.10
23499;DHT22;11926;48.120;11.562;2023-03-03T17:22:51;9.00;73.70
23499;DHT22;11926;48.120;11.562;2023-03-03T17:25:45;8.90;74.00
23499;DHT22;11926;48.120;11.562;2023-03-03T17:28:44;8.80;74.50
23499;DHT22;11926;48.120;11.562;2023-03-03T17:31:38;8.70;74.80
23499;DHT22;11926;48.120;11.562;2023-03-03T17:34:37;8.60;75.20
23499;DHT22;11926;48.120;11.562;2023-03-03T17:37:35;8.50;75.40
23499;DHT22;11926;48.120;11.562;2023-03-03T17:46:29;8.30;76.20
23499;DHT22;11926;48.120;11.562;2023-03-03T17:49:31;8.20;76.50
23499;DHT22;11926;48.120;11.562;2023-03-03T17:52:44;8.10;76.80
23499;DHT22;11926;48.120;11.562;2023-03-03T18:01:50;7.80;77.70
23499;DHT22;11926;48.120;11.562;2023-03-03T18:04:52;7.70;78.00
23499;DHT22;11926;48.120;11.562;2023-03-03T18:07:52;7.60;78.40
23499;DHT22;11926;48.120;11.562;2023-03-03T18:16:55;7.40;79.40
23499;DHT22;11926;48.120;11.562;2023-03-03T18:19:56;7.20;79.50
23499;DHT22;11926;48.120;11.562;2023-03-03T18:22:47;7.20;79.90
23499;DHT22;11926;48.120;11.562;2023-03-03T18:25:51;7.10;80.10
23499;DHT22;11926;48.120;11.562;2023-03-03T18:28:45;7.00;80.30
23499;DHT22;11926;48.120;11.562;2023-03-03T18:31:47;6.80;80.60
23499;DHT22;11926;48.120;11.562;2023-03-03T18:34:36;6.70;80.90
23499;DHT22;11926;48.120;11.562;2023-03-03T18:37:39;6.60;81.20
23499;DHT22;11926;48.120;11.562;2023-03-03T18:40:31;6.50;81.60
23499;DHT22;11926;48.120;11.562;2023-03-03T18:46:50;6.40;82.10
23499;DHT22;11926;48.120;11.562;2023-03-03T18:49:55;6.20;82.30
23499;DHT22;11926;48.120;11.562;2023-03-03T18:53:11;6.20;82.70
23499;DHT22;11926;48.120;11.562;2023-03-03T18:56:07;6.00;81.60
23499;DHT22;11926;48.120;11.562;2023-03-03T18:58:56;6.00;83.20
23499;DHT22;11926;48.120;11.562;2023-03-03T19:01:44;5.90;83.40
23499;DHT22;11926;48.120;11.562;2023-03-03T19:04:35;5.80;83.60
23499;DHT22;11926;48.120;11.562;2023-03-03T19:07:25;5.70;83.80
23499;DHT22;11926;48.120;11.562;2023-03-03T19:16:31;5.40;83.20
23499;DHT22;11926;48.120;11.562;2023-03-03T19:19:23;5.40;84.50
23499;DHT22;11926;48.120;11.562;2023-03-03T19:22:21;5.30;84.50
23499;DHT22;11926;48.120;11.562;2023-03-03T19:25:17;5.30;84.70